Terminal Aerodrome Forecast
Issued by NWS

Home | Current Version | Previous Version | Text Only | Print | Product List | Glossary On
Versions: 1 2 3 4 5 6 7 8 9 10 11 12 13 14 15 16 17 18 19 20 21 22
000
FTUS46 KSEW 211742
TAFPAE
TAF
KPAE 211742Z 2118/2218 33010KT 5SM BR VCSH BKN008 OVC015
     FM212100 33008KT P6SM VCSH SCT012 BKN020 OVC040
     FM220000 31007KT P6SM VCSH SCT020 BKN060
     FM220800 17006KT P6SM VCSH SCT015 BKN025 OVC060
     FM221400 17008KT 6SM -SHRA BR SCT005 BKN009 OVC015=

USA.gov is the U.S. government's official web portal to all federal, state and local government web resources and services.